Time;durP1;ratioP1;P1;durP2;ratioP2;P2;SDS_P1;SDS_P2;PMS_P1;PMS_P2;Temp;Humidity;BMP_temperature;BMP_pressure;BME280_temperature;BME280_humidity;BME280_pressure;Samples;Min_cycle;Max_cycle;Signal;HPM_P1;HPM_P2
2023/12/11 00:02:20;;;;;;;40.10;7.18;;;;;;;9.04;100.00;99871.47;5112522;28;20102;-58
2023/12/11 00:04:46;;;;;;;42.60;7.10;;;;;;;9.00;100.00;99878.81;5112983;28;20114;-58
2023/12/11 00:07:11;;;;;;;30.27;6.40;;;;;;;8.97;100.00;99872.84;5094772;28;20027;-58
2023/12/11 00:09:36;;;;;;;37.85;7.40;;;;;;;9.00;100.00;99873.50;5094644;28;20027;-58
2023/12/11 00:12:02;;;;;;;31.75;6.22;;;;;;;8.93;100.00;99872.22;5112865;28;20668;-58
2023/12/11 00:14:27;;;;;;;28.70;6.00;;;;;;;8.88;100.00;99871.72;5094770;28;20023;-58
2023/12/11 00:16:53;;;;;;;39.20;6.53;;;;;;;8.83;100.00;99872.06;5112353;28;20043;-58
2023/12/11 00:19:18;;;;;;;28.77;6.68;;;;;;;8.89;100.00;99880.53;5094571;28;20027;-58
2023/12/11 00:21:44;;;;;;;25.23;6.28;;;;;;;8.87;100.00;99872.69;5094818;28;20058;-58
2023/12/11 00:24:10;;;;;;;40.17;6.35;;;;;;;8.93;100.00;99880.19;5110259;28;20019;-58
2023/12/11 00:26:36;;;;;;;41.83;6.97;;;;;;;8.94;100.00;99881.03;5112357;28;20054;-58
2023/12/11 00:29:01;;;;;;;27.77;5.90;;;;;;;8.94;100.00;99873.06;5112730;28;20027;-58
2023/12/11 00:31:27;;;;;;;43.63;6.60;;;;;;;8.92;100.00;99867.91;5112261;28;20084;-58
2023/12/11 00:33:52;;;;;;;32.05;5.97;;;;;;;8.90;100.00;99866.31;5112794;28;20103;-58
2023/12/11 00:36:17;;;;;;;32.58;5.20;;;;;;;9.01;100.00;99869.88;5112128;28;20028;-58
2023/12/11 00:38:43;;;;;;;25.80;5.20;;;;;;;8.95;100.00;99866.84;5112638;28;20023;-58
2023/12/11 00:41:08;;;;;;;37.47;7.80;;;;;;;8.97;100.00;99864.91;5112458;28;20034;-58
2023/12/11 00:43:34;;;;;;;26.13;7.22;;;;;;;8.89;100.00;99865.47;5112392;28;20106;-58
2023/12/11 00:45:59;;;;;;;35.70;7.68;;;;;;;8.89;100.00;99862.81;5111694;28;20381;-58
2023/12/11 00:48:25;;;;;;;32.13;6.93;;;;;;;8.87;100.00;99862.91;5094200;28;20068;-58
2023/12/11 00:50:50;;;;;;;34.88;6.10;;;;;;;8.94;100.00;99855.38;5094066;28;20015;-58
2023/12/11 00:53:16;;;;;;;29.45;7.40;;;;;;;8.98;100.00;99862.16;5093838;28;20054;-58
2023/12/11 00:55:41;;;;;;;38.55;5.88;;;;;;;8.99;100.00;99861.19;5111556;28;20023;-58
2023/12/11 00:58:07;;;;;;;32.42;7.22;;;;;;;9.07;100.00;99855.34;5085269;28;20012;-58
2023/12/11 01:00:32;;;;;;;38.45;7.97;;;;;;;9.03;100.00;99844.09;5111178;28;20027;-58
2023/12/11 01:02:57;;;;;;;33.15;8.25;;;;;;;9.13;100.00;99846.91;5094028;28;20027;-58
2023/12/11 01:05:23;;;;;;;40.53;6.95;;;;;;;9.16;100.00;99845.84;5116521;27;20478;-58
2023/12/11 01:07:49;;;;;;;31.98;6.35;;;;;;;9.09;100.00;99843.66;5093614;28;20026;-58
2023/12/11 01:10:17;;;;;;;41.95;6.25;;;;;;;9.18;100.00;99847.44;5093090;28;20499;-58
2023/12/11 01:12:42;;;;;;;46.67;7.63;;;;;;;9.07;100.00;99840.25;5112072;28;20047;-58
2023/12/11 01:15:08;;;;;;;38.45;6.03;;;;;;;9.04;100.00;99832.53;5110885;28;20024;-59
2023/12/11 01:17:34;;;;;;;36.15;6.13;;;;;;;9.15;100.00;99837.06;5111674;28;20015;-58
2023/12/11 01:19:59;;;;;;;31.00;5.57;;;;;;;9.08;100.00;99822.53;5111645;28;20423;-58
2023/12/11 01:22:25;;;;;;;31.42;6.70;;;;;;;9.10;100.00;99825.94;5111735;28;20090;-58
2023/12/11 01:24:50;;;;;;;38.83;6.78;;;;;;;9.15;100.00;99825.56;5111533;28;20033;-58
2023/12/11 01:27:15;;;;;;;29.92;5.65;;;;;;;9.16;100.00;99828.13;5093206;28;20039;-58
2023/12/11 01:29:41;;;;;;;23.90;6.60;;;;;;;9.27;100.00;99819.38;5093134;28;20036;-58
2023/12/11 01:32:06;;;;;;;31.63;6.75;;;;;;;9.17;100.00;99821.00;5092822;28;20061;-58
2023/12/11 01:34:32;;;;;;;32.08;5.97;;;;;;;9.14;100.00;99814.13;5111335;28;20050;-58
2023/12/11 01:36:57;;;;;;;38.95;7.03;;;;;;;9.09;100.00;99803.88;5111393;28;20466;-58
2023/12/11 01:39:23;;;;;;;58.92;8.75;;;;;;;9.23;100.00;99802.81;5111481;28;20024;-58
2023/12/11 01:41:48;;;;;;;41.90;11.77;;;;;;;9.13;100.00;99793.03;5111557;28;20057;-58
2023/12/11 01:44:14;;;;;;;28.75;5.53;;;;;;;9.37;100.00;99809.75;5110637;28;20107;-59
2023/12/11 01:46:39;;;;;;;40.67;8.98;;;;;;;9.29;100.00;99809.47;5111088;28;20028;-58
2023/12/11 01:49:05;;;;;;;29.70;4.97;;;;;;;9.42;100.00;99801.47;5093363;28;20027;-58
2023/12/11 01:51:30;;;;;;;45.63;8.07;;;;;;;9.39;100.00;99801.69;5093097;28;20023;-58
2023/12/11 01:53:59;;;;;;;24.05;5.03;;;;;;;9.30;100.00;99797.94;5111281;28;20060;-58
2023/12/11 01:56:25;;;;;;;29.75;7.05;;;;;;;9.31;100.00;99792.50;5090598;28;20059;-58
2023/12/11 01:58:51;;;;;;;34.45;6.70;;;;;;;9.33;100.00;99789.75;5092955;28;20042;-58
2023/12/11 02:01:21;;;;;;;31.67;5.82;;;;;;;9.35;100.00;99781.66;5110750;28;20367;-57
2023/12/11 02:03:47;;;;;;;30.13;6.05;;;;;;;9.39;100.00;99778.66;5092970;28;20405;-58
2023/12/11 02:06:13;;;;;;;17.40;4.60;;;;;;;9.46;100.00;99769.25;5093548;28;20034;-58
2023/12/11 02:08:38;;;;;;;28.05;6.18;;;;;;;9.35;100.00;99766.56;5097034;28;20016;-58
2023/12/11 02:11:06;;;;;;;32.15;6.70;;;;;;;9.30;100.00;99761.63;5115416;28;20024;-58
2023/12/11 02:13:33;;;;;;;19.63;5.10;;;;;;;9.44;100.00;99765.03;5097227;28;20019;-58
2023/12/11 02:15:59;;;;;;;24.95;5.25;;;;;;;9.39;100.00;99760.09;5114696;28;20084;-58
2023/12/11 02:18:24;;;;;;;35.55;6.47;;;;;;;9.38;100.00;99765.50;5115541;28;20024;-58
2023/12/11 02:20:55;;;;;;;32.97;6.03;;;;;;;9.46;100.00;99768.41;5096440;28;20522;-58
2023/12/11 02:24:08;;;;;;;22.35;5.35;;;;;;;9.36;100.00;99768.28;5115382;28;20443;-58
2023/12/11 02:26:34;;;;;;;26.27;5.43;;;;;;;9.38;100.00;99770.81;5107788;28;20149;-58
2023/12/11 02:28:59;;;;;;;20.80;5.15;;;;;;;9.37;100.00;99758.50;5112454;28;20107;-58
2023/12/11 02:31:25;;;;;;;44.60;10.93;;;;;;;9.27;100.00;99759.19;5114193;28;20062;-58
2023/12/11 02:33:50;;;;;;;32.75;5.70;;;;;;;9.37;100.00;99763.81;5115087;28;20095;-58
2023/12/11 02:36:15;;;;;;;40.10;5.57;;;;;;;9.32;100.00;99754.41;5113954;28;20026;-58
2023/12/11 02:38:41;;;;;;;20.58;5.07;;;;;;;9.36;100.00;99757.66;5114753;28;20023;-58
2023/12/11 02:41:06;;;;;;;38.38;6.63;;;;;;;9.30;100.00;99744.88;5114970;28;20043;-58
2023/12/11 02:43:33;;;;;;;33.05;5.80;;;;;;;9.27;100.00;99737.13;5096494;28;20028;-58
2023/12/11 02:45:58;;;;;;;23.33;6.47;;;;;;;9.40;100.00;99732.56;5095852;28;20482;-58
2023/12/11 02:48:24;;;;;;;25.77;6.20;;;;;;;9.27;100.00;99731.84;5096278;28;20039;-58
2023/12/11 02:50:49;;;;;;;27.70;4.82;;;;;;;9.36;100.00;99732.94;5114245;28;20032;-58
2023/12/11 02:53:15;;;;;;;21.15;3.83;;;;;;;9.33;100.00;99731.38;5114367;28;20023;-59
2023/12/11 02:55:40;;;;;;;30.27;5.10;;;;;;;9.26;100.00;99738.91;5114492;28;20031;-58
2023/12/11 02:58:06;;;;;;;24.60;5.43;;;;;;;9.30;100.00;99724.47;5096295;28;20016;-58
2023/12/11 03:00:32;;;;;;;27.80;4.90;;;;;;;9.23;100.00;99717.09;5113945;28;20462;-58
2023/12/11 03:02:57;;;;;;;22.85;4.57;;;;;;;9.19;100.00;99711.19;5093614;28;20517;-58
2023/12/11 03:05:24;;;;;;;24.65;5.97;;;;;;;9.26;100.00;99711.53;5114250;28;20028;-58
2023/12/11 03:07:49;;;;;;;38.05;9.93;;;;;;;9.18;100.00;99698.03;5095955;28;20478;-58
2023/12/11 03:10:15;;;;;;;23.75;4.93;;;;;;;9.16;100.00;99708.75;5114042;28;20032;-58
2023/12/11 03:12:41;;;;;;;24.50;4.90;;;;;;;9.21;100.00;99703.13;5113870;28;20085;-58
2023/12/11 03:15:08;;;;;;;19.02;5.45;;;;;;;9.27;100.00;99687.56;5095345;28;20015;-58
2023/12/11 03:17:33;;;;;;;30.70;5.88;;;;;;;9.11;100.00;99692.34;5114092;28;20008;-58
2023/12/11 03:20:01;;;;;;;31.00;6.18;;;;;;;9.17;100.00;99675.94;5095814;28;20062;-58
2023/12/11 03:22:27;;;;;;;29.08;5.22;;;;;;;9.25;100.00;99678.88;5095736;28;20023;-58
2023/12/11 03:24:54;;;;;;;31.38;7.80;;;;;;;9.10;100.00;99678.22;5095663;28;20095;-58
2023/12/11 03:27:20;;;;;;;23.23;5.47;;;;;;;9.16;100.00;99692.00;5113863;28;20043;-58
2023/12/11 03:29:47;;;;;;;13.15;3.60;;;;;;;9.18;100.00;99682.97;5095332;28;20118;-58
2023/12/11 03:32:12;;;;;;;22.80;5.90;;;;;;;9.07;100.00;99691.72;5113404;28;20424;-58
2023/12/11 03:34:38;;;;;;;22.15;5.75;;;;;;;9.04;100.00;99686.66;5112760;28;20076;-58
2023/12/11 03:37:03;;;;;;;21.60;4.90;;;;;;;9.07;100.00;99680.28;5114078;28;20017;-58
2023/12/11 03:39:29;;;;;;;22.08;5.32;;;;;;;9.04;100.00;99684.00;5095066;28;20575;-58
2023/12/11 03:41:54;;;;;;;27.27;5.50;;;;;;;9.10;100.00;99680.03;5113671;28;20497;-58
2023/12/11 03:44:20;;;;;;;25.20;5.10;;;;;;;9.04;100.00;99688.47;5095427;28;20016;-58
2023/12/11 03:46:46;;;;;;;14.88;3.95;;;;;;;9.11;100.00;99687.03;5113065;28;20035;-58
2023/12/11 03:49:16;;;;;;;22.77;4.80;;;;;;;9.13;100.00;99693.06;5095390;28;20020;-58
2023/12/11 03:51:42;;;;;;;19.38;4.28;;;;;;;9.18;100.00;99682.13;5113340;28;20566;-58
2023/12/11 03:54:10;;;;;;;16.80;4.82;;;;;;;9.15;100.00;99680.53;5113249;28;20019;-58
2023/12/11 03:56:35;;;;;;;19.85;4.65;;;;;;;9.16;100.00;99695.50;5113512;28;20020;-58
2023/12/11 03:59:01;;;;;;;25.48;5.55;;;;;;;9.03;100.00;99681.44;5113304;28;20027;-58
2023/12/11 04:01:26;;;;;;;12.57;3.67;;;;;;;9.10;100.00;99685.34;5112670;28;20019;-58
2023/12/11 04:03:52;;;;;;;19.23;4.15;;;;;;;9.02;100.00;99687.72;5113283;28;20024;-58
2023/12/11 04:06:17;;;;;;;23.85;5.22;;;;;;;9.05;100.00;99674.22;5112920;28;20426;-58
2023/12/11 04:08:43;;;;;;;13.20;4.15;;;;;;;9.08;100.00;99688.09;5112872;28;20098;-58
2023/12/11 04:11:09;;;;;;;18.85;5.13;;;;;;;9.07;100.00;99685.59;5113035;28;20026;-58
2023/12/11 04:13:35;;;;;;;26.73;6.80;;;;;;;9.18;100.00;99687.44;5100766;28;20085;-58
2023/12/11 04:16:03;;;;;;;17.67;4.15;;;;;;;9.17;100.00;99680.41;5112733;28;20035;-58
2023/12/11 04:18:29;;;;;;;12.23;3.72;;;;;;;9.09;100.00;99673.06;5094560;28;20443;-58
2023/12/11 04:20:55;;;;;;;24.42;4.63;;;;;;;9.02;100.00;99682.41;5112805;28;20078;-58
2023/12/11 04:23:25;;;;;;;29.70;5.18;;;;;;;8.98;100.00;99676.50;5093960;28;20493;-58
2023/12/11 04:25:53;;;;;;;25.95;6.68;;;;;;;8.93;100.00;99675.16;5112552;28;20020;-58
2023/12/11 04:28:19;;;;;;;20.02;5.82;;;;;;;8.95;100.00;99670.59;5112413;28;20019;-58
2023/12/11 04:30:45;;;;;;;17.25;5.25;;;;;;;8.97;100.00;99660.69;5111586;28;20394;-58
2023/12/11 04:33:11;;;;;;;15.63;4.07;;;;;;;8.93;100.00;99661.91;5112643;28;20035;-58
2023/12/11 04:35:37;;;;;;;23.30;4.70;;;;;;;8.89;100.00;99660.47;5093926;28;20027;-58
2023/12/11 04:38:02;;;;;;;22.65;5.07;;;;;;;8.84;100.00;99655.50;5093994;28;20351;-58
2023/12/11 04:40:28;;;;;;;26.70;5.35;;;;;;;8.81;100.00;99651.25;5111977;28;20024;-58
2023/12/11 04:42:53;;;;;;;24.15;6.15;;;;;;;8.87;100.00;99653.44;5094471;28;20049;-58
2023/12/11 04:45:18;;;;;;;24.15;4.85;;;;;;;8.79;100.00;99647.88;5093436;28;20393;-58
2023/12/11 04:47:44;;;;;;;19.05;4.22;;;;;;;8.85;100.00;99657.16;5112390;28;20427;-58
2023/12/11 04:50:09;;;;;;;25.85;6.38;;;;;;;8.80;100.00;99654.03;5093708;28;20020;-58
2023/12/11 04:52:35;;;;;;;29.25;5.72;;;;;;;8.78;100.00;99664.75;5112381;28;20022;-58
2023/12/11 04:55:00;;;;;;;34.47;6.47;;;;;;;8.81;100.00;99653.91;5093752;28;20114;-58
2023/12/11 04:57:26;;;;;;;22.42;5.25;;;;;;;8.81;100.00;99651.25;5111874;28;20409;-58
2023/12/11 04:59:51;;;;;;;23.80;4.35;;;;;;;8.79;100.00;99641.72;5112709;28;20077;-58
2023/12/11 05:02:17;;;;;;;28.25;5.22;;;;;;;8.91;100.00;99653.22;5093352;28;20166;-58
2023/12/11 05:04:42;;;;;;;14.52;3.88;;;;;;;8.92;100.00;99641.66;5112192;28;20020;-58
2023/12/11 05:07:07;;;;;;;23.33;4.65;;;;;;;8.96;100.00;99645.75;5111615;28;20157;-58
2023/12/11 05:09:33;;;;;;;34.17;6.65;;;;;;;8.84;100.00;99636.94;5111956;28;20020;-58
2023/12/11 05:11:58;;;;;;;26.90;5.10;;;;;;;8.84;100.00;99652.84;5111762;28;20303;-58
2023/12/11 05:14:24;;;;;;;24.05;4.90;;;;;;;8.86;100.00;99659.72;5111740;28;20016;-58
2023/12/11 05:16:49;;;;;;;26.23;5.65;;;;;;;8.76;100.00;99656.03;5093073;28;20008;-58
2023/12/11 05:19:15;;;;;;;19.20;4.80;;;;;;;8.93;100.00;99652.13;5075351;28;20119;-58
2023/12/11 05:21:44;;;;;;;30.02;5.55;;;;;;;8.84;100.00;99652.84;5111345;28;20493;-58
2023/12/11 05:24:11;;;;;;;24.27;5.45;;;;;;;8.89;100.00;99655.16;5093371;28;20565;-58
2023/12/11 05:26:37;;;;;;;15.93;5.25;;;;;;;8.88;100.00;99648.97;5110462;28;20055;-58
2023/12/11 05:29:08;;;;;;;22.98;6.05;;;;;;;8.91;100.00;99639.94;5093245;28;20034;-58
2023/12/11 05:31:33;;;;;;;19.52;4.80;;;;;;;8.97;100.00;99663.34;5093178;28;20031;-58
2023/12/11 05:33:59;;;;;;;19.17;4.75;;;;;;;8.99;100.00;99662.28;5093221;28;20122;-58
2023/12/11 05:36:24;;;;;;;33.88;5.55;;;;;;;8.87;100.00;99657.91;5111268;28;20402;-58
2023/12/11 05:38:50;;;;;;;29.95;5.50;;;;;;;8.80;100.00;99640.78;5111409;28;20039;-58
2023/12/11 05:41:17;;;;;;;33.35;5.63;;;;;;;8.97;100.00;99650.97;5092266;28;20543;-59
2023/12/11 05:43:43;;;;;;;27.70;6.63;;;;;;;8.89;100.00;99648.03;5111189;28;20088;-58
2023/12/11 05:46:08;;;;;;;28.67;5.65;;;;;;;8.86;100.00;99648.28;5111269;28;20031;-58
2023/12/11 05:48:34;;;;;;;22.48;4.65;;;;;;;8.90;100.00;99646.22;5111307;28;20058;-58
2023/12/11 05:50:59;;;;;;;20.55;4.72;;;;;;;8.85;100.00;99642.13;5092889;28;20156;-58
2023/12/11 05:53:27;;;;;;;25.95;5.55;;;;;;;8.84;100.00;99648.38;5092895;28;20028;-58
2023/12/11 05:55:55;;;;;;;29.02;5.68;;;;;;;8.90;100.00;99638.28;5111138;28;20378;-58
2023/12/11 05:58:20;;;;;;;23.60;5.03;;;;;;;8.90;100.00;99635.63;5093005;28;20112;-58
2023/12/11 06:00:46;;;;;;;13.65;4.15;;;;;;;9.13;100.00;99637.38;5092168;28;20115;-58
2023/12/11 06:03:11;;;;;;;21.80;5.10;;;;;;;8.96;100.00;99640.47;5110955;28;20102;-58
2023/12/11 06:05:37;;;;;;;28.27;6.57;;;;;;;8.91;100.00;99648.75;5092935;28;20107;-58
2023/12/11 06:08:04;;;;;;;29.92;4.63;;;;;;;8.94;100.00;99639.72;5111117;28;20027;-58
2023/12/11 06:10:29;;;;;;;20.67;4.30;;;;;;;8.93;100.00;99640.69;5087367;28;20047;-58
2023/12/11 06:12:55;;;;;;;27.95;5.82;;;;;;;8.81;100.00;99642.47;5108381;28;20408;-58
2023/12/11 06:15:20;;;;;;;23.30;4.82;;;;;;;8.81;100.00;99635.34;5092486;28;20394;-58
2023/12/11 06:17:46;;;;;;;19.60;4.80;;;;;;;8.96;100.00;99653.72;5110726;28;20316;-58
2023/12/11 06:20:11;;;;;;;25.85;5.72;;;;;;;8.82;100.00;99652.09;5092850;28;20070;-58
2023/12/11 06:22:39;;;;;;;22.42;6.57;;;;;;;8.83;100.00;99657.28;5111720;28;20047;-58
2023/12/11 06:25:05;;;;;;;15.48;4.22;;;;;;;9.03;100.00;99650.50;5110972;28;20038;-58
2023/12/11 06:27:30;;;;;;;22.77;4.85;;;;;;;8.95;100.00;99654.69;5110343;28;20417;-58
2023/12/11 06:29:56;;;;;;;20.50;4.88;;;;;;;8.95;100.00;99654.69;5092832;28;20024;-58
2023/12/11 06:32:22;;;;;;;26.25;5.18;;;;;;;8.94;100.00;99645.03;5092571;28;20038;-58
2023/12/11 06:34:49;;;;;;;23.33;5.03;;;;;;;8.92;100.00;99646.97;5111010;28;20028;-58
2023/12/11 06:37:15;;;;;;;28.17;5.95;;;;;;;8.85;100.00;99655.38;5110670;28;20059;-58
2023/12/11 06:39:40;;;;;;;18.52;4.55;;;;;;;8.79;100.00;99655.81;5092616;28;20549;-58
2023/12/11 06:42:06;;;;;;;20.60;4.53;;;;;;;8.87;100.00;99669.34;5092783;28;20032;-58
2023/12/11 06:44:31;;;;;;;23.38;5.57;;;;;;;8.97;100.00;99652.75;5092402;28;20055;-58
2023/12/11 06:47:01;;;;;;;23.02;5.03;;;;;;;8.81;100.00;99647.75;5109934;28;20034;-58
2023/12/11 06:49:26;;;;;;;;;;;;;;;8.95;100.00;99663.47;5092992;28;20123;-58
2023/12/11 06:51:52;;;;;;;30.85;6.15;;;;;;;8.79;100.00;99666.41;5092061;28;19958;-58
2023/12/11 06:54:18;;;;;;;15.45;3.72;;;;;;;8.84;100.00;99668.75;5112201;28;20100;-58
2023/12/11 06:56:43;;;;;;;10.90;4.05;;;;;;;8.91;100.00;99658.50;5114341;28;20389;-58
2023/12/11 06:59:09;;;;;;;40.05;4.85;;;;;;;8.92;100.00;99673.47;5114608;28;20093;-58
2023/12/11 07:01:37;;;;;;;19.80;4.75;;;;;;;9.03;100.00;99670.84;5078932;28;20023;-58
2023/12/11 07:04:03;;;;;;;27.48;5.57;;;;;;;8.91;100.00;99682.38;5114527;28;20024;-59
2023/12/11 07:06:29;;;;;;;21.52;4.60;;;;;;;8.87;100.00;99674.66;5113655;28;20431;-58
2023/12/11 07:08:54;;;;;;;18.45;4.72;;;;;;;8.90;100.00;99689.50;5096195;28;20459;-58
2023/12/11 07:11:20;;;;;;;23.27;6.13;;;;;;;8.92;100.00;99692.88;5095869;28;20031;-58
2023/12/11 07:13:45;;;;;;;22.40;5.35;;;;;;;9.00;100.00;99679.91;5096069;28;20370;-58
2023/12/11 07:16:11;;;;;;;17.55;4.80;;;;;;;8.91;100.00;99679.72;5113532;28;20050;-58
2023/12/11 07:18:40;;;;;;;22.05;4.40;;;;;;;8.98;100.00;99683.63;5114016;28;20022;-58
2023/12/11 07:21:09;;;;;;;22.25;5.18;;;;;;;8.94;100.00;99692.75;5114195;28;20054;-58
2023/12/11 07:23:35;;;;;;;14.35;4.13;;;;;;;8.93;100.00;99691.91;5095328;28;20060;-58
2023/12/11 07:26:00;;;;;;;12.73;4.75;;;;;;;9.08;100.00;99700.53;5095753;28;20427;-58
2023/12/11 07:28:26;;;;;;;22.60;4.07;;;;;;;8.84;100.00;99689.94;5113370;28;20035;-58
2023/12/11 07:30:51;;;;;;;20.50;4.10;;;;;;;8.85;100.00;99700.47;5094916;28;20024;-58
2023/12/11 07:33:17;;;;;;;21.17;3.90;;;;;;;8.86;100.00;99701.31;5113954;28;20032;-58
2023/12/11 07:35:42;;;;;;;18.63;4.20;;;;;;;8.89;100.00;99697.56;5095424;28;20016;-58
2023/12/11 07:38:08;;;;;;;20.02;4.05;;;;;;;8.84;100.00;99716.47;5096137;28;20489;-58
2023/12/11 07:40:33;;;;;;;22.02;3.70;;;;;;;8.97;100.00;99737.59;5095344;28;20453;-58
2023/12/11 07:42:59;;;;;;;18.73;3.90;;;;;;;8.90;100.00;99744.34;5095500;28;20053;-58
2023/12/11 07:45:25;;;;;;;16.13;3.80;;;;;;;8.85;100.00;99742.00;5113453;28;20015;-58
2023/12/11 07:47:52;;;;;;;24.92;5.22;;;;;;;8.69;100.00;99733.50;5113795;28;20493;-58
2023/12/11 07:50:18;;;;;;;16.55;4.10;;;;;;;8.83;100.00;99749.25;5113348;28;20051;-58
2023/12/11 07:52:43;;;;;;;19.80;4.88;;;;;;;8.77;100.00;99755.84;5095173;28;20508;-58
2023/12/11 07:55:09;;;;;;;18.25;4.63;;;;;;;8.73;100.00;99751.72;5095694;28;20029;-58
2023/12/11 07:57:34;;;;;;;20.20;3.60;;;;;;;8.71;100.00;99760.75;5095453;28;20016;-58
2023/12/11 08:00:00;;;;;;;21.00;4.10;;;;;;;8.61;100.00;99757.91;5113088;28;20104;-58
2023/12/11 08:02:25;;;;;;;14.18;3.40;;;;;;;8.63;100.00;99775.41;5095010;28;20024;-58
2023/12/11 08:04:51;;;;;;;32.20;5.78;;;;;;;8.75;100.00;99765.72;5112467;28;20023;-58
2023/12/11 08:07:17;;;;;;;15.77;4.00;;;;;;;8.79;100.00;99774.28;5112755;28;20019;-58
2023/12/11 08:09:42;;;;;;;18.58;4.85;;;;;;;8.67;100.00;99765.41;5112577;28;20051;-58
2023/12/11 08:12:08;;;;;;;17.73;4.20;;;;;;;8.72;100.00;99781.00;5113377;28;21222;-58
2023/12/11 08:14:34;;;;;;;17.92;4.30;;;;;;;8.64;100.00;99795.63;5110345;28;20032;-58
2023/12/11 08:16:59;;;;;;;16.38;4.03;;;;;;;8.63;100.00;99787.81;5113535;28;20020;-58
2023/12/11 08:19:28;;;;;;;18.10;4.28;;;;;;;8.67;100.00;99783.97;5113784;28;20035;-58
2023/12/11 08:21:54;;;;;;;23.57;4.17;;;;;;;8.68;100.00;99798.94;5113848;28;20016;-58
2023/12/11 08:24:19;;;;;;;24.58;4.25;;;;;;;8.69;100.00;99797.13;5095475;28;20496;-58
2023/12/11 08:26:46;;;;;;;23.38;4.82;;;;;;;8.61;100.00;99795.00;5113537;28;20602;-58
2023/12/11 08:29:11;;;;;;;14.10;3.67;;;;;;;8.71;100.00;99803.16;5078748;28;20031;-58
2023/12/11 08:31:37;;;;;;;15.13;3.97;;;;;;;8.75;100.00;99788.72;5113336;28;20539;-58
2023/12/11 08:34:02;;;;;;;18.02;3.90;;;;;;;8.74;100.00;99806.44;5095457;28;20107;-58
2023/12/11 08:36:28;;;;;;;20.25;4.25;;;;;;;8.89;100.00;99822.19;5095285;28;20023;-58
2023/12/11 08:38:53;;;;;;;11.80;3.47;;;;;;;8.96;100.00;99818.13;5095426;28;20035;-58
2023/12/11 08:41:19;;;;;;;17.27;4.10;;;;;;;8.93;100.00;99819.19;5095173;28;20050;-58
2023/12/11 08:43:44;;;;;;;11.00;3.80;;;;;;;8.90;100.00;99821.22;5113542;28;20031;-58
2023/12/11 08:46:10;;;;;;;21.45;4.47;;;;;;;8.92;100.00;99828.13;5112999;28;20095;-58
2023/12/11 08:48:35;;;;;;;16.70;4.03;;;;;;;8.96;100.00;99836.69;5078221;28;20019;-58
2023/12/11 08:51:01;;;;;;;16.27;3.67;;;;;;;8.96;100.00;99842.84;5116555;27;20097;-58
2023/12/11 08:53:26;;;;;;;19.42;4.50;;;;;;;8.98;100.00;99858.66;5110334;27;20012;-58
2023/12/11 08:55:53;;;;;;;19.67;3.75;;;;;;;9.05;100.00;99859.88;5112508;28;20019;-58
2023/12/11 08:58:19;;;;;;;11.82;3.70;;;;;;;9.09;100.00;99862.22;5112467;28;20012;-58
2023/12/11 09:00:44;;;;;;;11.75;3.30;;;;;;;9.04;100.00;99880.25;5112053;28;20030;-58
2023/12/11 09:03:10;;;;;;;19.00;4.47;;;;;;;9.01;100.00;99900.88;5128685;27;20026;-58
2023/12/11 09:05:36;;;;;;;16.40;4.15;;;;;;;8.90;100.00;99885.72;5094076;28;20098;-58
2023/12/11 09:08:02;;;;;;;16.05;4.15;;;;;;;8.95;100.00;99904.81;5112150;28;20011;-58
2023/12/11 09:10:27;;;;;;;24.88;3.95;;;;;;;8.86;100.00;99908.94;5093876;28;20402;-58
2023/12/11 09:12:55;;;;;;;16.48;3.95;;;;;;;8.90;100.00;99914.03;5112324;28;20501;-58
2023/12/11 09:15:20;;;;;;;18.33;3.95;;;;;;;8.82;100.00;99934.00;5111769;28;20530;-58
2023/12/11 09:17:46;;;;;;;18.08;4.22;;;;;;;8.72;100.00;99927.63;5093646;28;20011;-58
2023/12/11 09:20:12;;;;;;;10.10;2.85;;;;;;;8.72;100.00;99917.03;5093658;28;20051;-58
2023/12/11 09:22:41;;;;;;;17.60;3.35;;;;;;;8.78;100.00;99935.16;5094079;28;20023;-58
2023/12/11 09:25:06;;;;;;;13.50;3.63;;;;;;;8.72;100.00;99940.91;5094004;28;20063;-58
2023/12/11 09:27:32;;;;;;;16.10;4.20;;;;;;;8.70;100.00;99940.13;5093360;28;20716;-58
2023/12/11 09:29:58;;;;;;;13.63;4.00;;;;;;;8.74;100.00;99940.81;5111632;28;20081;-58
2023/12/11 09:32:24;;;;;;;12.27;3.45;;;;;;;8.69;100.00;99958.81;5111847;28;20023;-58
2023/12/11 09:34:51;;;;;;;11.95;3.30;;;;;;;8.67;100.00;99956.25;5111956;28;20103;-58
2023/12/11 09:37:20;;;;;;;10.43;3.15;;;;;;;8.63;100.00;99968.03;5112006;28;20100;-58
2023/12/11 09:39:47;;;;;;;14.48;3.33;;;;;;;8.71;100.00;99976.31;5093518;28;20020;-58
2023/12/11 09:42:14;;;;;;;8.00;2.95;;;;;;;8.75;100.00;99972.50;5111672;28;20077;-58
2023/12/11 09:44:45;;;;;;;13.68;3.35;;;;;;;8.74;100.00;99983.22;5111779;28;20034;-58
2023/12/11 09:47:16;;;;;;;15.95;3.42;;;;;;;8.83;100.00;99987.88;5111398;28;20028;-58
2023/12/11 09:49:41;;;;;;;9.55;3.30;;;;;;;8.84;100.00;99987.75;5113904;27;20026;-58
2023/12/11 09:52:07;;;;;;;9.05;2.90;;;;;;;8.86;100.00;100003.56;5111831;28;20008;-58
2023/12/11 09:54:33;;;;;;;10.75;3.42;;;;;;;8.92;100.00;99989.88;5111503;28;20420;-58
2023/12/11 09:56:58;;;;;;;14.25;3.22;;;;;;;8.99;100.00;100011.50;5111532;28;20019;-58
2023/12/11 09:59:26;;;;;;;16.33;4.03;;;;;;;9.05;100.00;100005.78;5093295;28;20023;-58
2023/12/11 10:01:51;;;;;;;14.75;3.25;;;;;;;9.22;100.00;100021.34;5111282;28;20049;-58
2023/12/11 10:04:17;;;;;;;10.38;3.17;;;;;;;9.34;100.00;100019.63;5111704;28;20026;-58
2023/12/11 10:06:43;;;;;;;17.20;3.85;;;;;;;9.45;100.00;100010.91;5093241;28;20027;-58
2023/12/11 10:09:26;;;;;;;16.10;4.03;;;;;;;9.53;100.00;100019.19;5111877;28;20023;-58
2023/12/11 10:12:02;;;;;;;13.30;3.15;;;;;;;9.51;100.00;100013.97;5110987;28;20054;-58
2023/12/11 10:14:30;;;;;;;8.90;3.85;;;;;;;9.55;100.00;100034.00;5093251;28;20107;-58
2023/12/11 10:16:58;;;;;;;10.82;3.35;;;;;;;9.61;100.00;100032.72;5092906;28;20058;-58
2023/12/11 10:19:31;;;;;;;10.00;3.28;;;;;;;9.61;100.00;100006.16;5111483;28;20030;-58
2023/12/11 10:21:57;;;;;;;15.93;2.88;;;;;;;9.71;100.00;100040.88;5092862;28;20042;-58
2023/12/11 10:24:27;;;;;;;10.18;2.97;;;;;;;9.68;100.00;100046.41;5092609;28;20027;-58
2023/12/11 10:26:56;;;;;;;11.65;3.25;;;;;;;9.66;100.00;100053.63;5111273;28;20054;-59
2023/12/11 10:29:23;;;;;;;8.25;3.00;;;;;;;9.65;100.00;100049.31;5115569;28;20107;-58
2023/12/11 10:31:49;;;;;;;8.45;3.00;;;;;;;9.69;100.00;100048.94;5114904;28;20016;-58
2023/12/11 10:34:15;;;;;;;9.05;3.25;;;;;;;9.58;100.00;100058.66;5115542;28;20427;-58
2023/12/11 10:36:48;;;;;;;11.80;3.78;;;;;;;9.38;100.00;100065.38;5096887;28;20028;-59
2023/12/11 10:39:14;;;;;;;9.73;2.85;;;;;;;9.39;100.00;100073.22;5097011;28;20469;-58
2023/12/11 10:41:39;;;;;;;12.23;3.15;;;;;;;9.38;100.00;100078.63;5096803;28;20035;-59
2023/12/11 10:44:05;;;;;;;17.77;3.78;;;;;;;9.38;100.00;100075.97;5114787;28;20032;-58
2023/12/11 10:46:31;;;;;;;12.02;3.83;;;;;;;9.45;100.00;100074.59;5114000;28;20486;-58
2023/12/11 10:48:58;;;;;;;14.65;4.07;;;;;;;9.36;100.00;100089.38;5111522;28;20064;-58
2023/12/11 10:51:25;;;;;;;10.07;3.20;;;;;;;9.37;100.00;100087.56;5114804;27;20437;-58
2023/12/11 10:53:51;;;;;;;12.90;3.30;;;;;;;9.49;100.00;100097.31;5113691;28;20023;-58
2023/12/11 10:56:19;;;;;;;11.20;2.92;;;;;;;9.58;100.00;100096.66;5114055;27;20394;-58
2023/12/11 10:58:45;;;;;;;9.48;3.30;;;;;;;9.67;100.00;100109.28;5113981;28;20382;-59
2023/12/11 11:01:12;;;;;;;13.50;4.55;;;;;;;9.63;100.00;100109.63;5111416;28;20023;-58
2023/12/11 11:03:38;;;;;;;9.85;3.50;;;;;;;9.75;100.00;100114.88;5114093;28;20016;-58
2023/12/11 11:06:05;;;;;;;11.32;3.22;;;;;;;9.74;100.00;100104.41;5095213;28;20490;-58
2023/12/11 11:08:45;;;;;;;15.75;3.13;;;;;;;9.81;100.00;100112.75;5094750;28;20020;-59
2023/12/11 11:11:16;;;;;;;9.40;2.42;;;;;;;9.86;100.00;100123.91;5113850;28;20028;-58
2023/12/11 11:14:16;;;;;;;11.05;2.88;;;;;;;9.89;100.00;100129.84;5114210;28;20051;-58
2023/12/11 11:16:58;;;;;;;9.88;2.88;;;;;;;9.88;100.00;100127.28;5091313;28;20486;-58
2023/12/11 11:19:24;;;;;;;10.07;3.13;;;;;;;9.81;100.00;100134.00;5114359;28;20074;-58
2023/12/11 11:22:06;;;;;;;6.25;2.60;;;;;;;9.67;100.00;100141.13;5094459;28;20511;-58